Terminal Aerodrome Forecast
Issued by NWS Upton, NY

Home | Current Version | Previous Version | Text Only | Print | Product List | Glossary On
Versions: 1 2 3 4 5 6 7 8 9 10 11 12 13 14 15 16 17 18 19 20 21 22
000
FTUS41 KOKX 291400 AAA
TAFISP
TAF AMD
KISP 291430Z 2915/3012 34007KT P6SM BKN250
     FM291800 33008KT P6SM FEW035 BKN250
     FM300000 36006KT P6SM FEW040 SCT120 BKN200=

USA.gov is the U.S. government's official web portal to all federal, state and local government web resources and services.